Time;durP1;ratioP1;P1;durP2;ratioP2;P2;SDS_P1;SDS_P2;PMS_P1;PMS_P2;Temp;Humidity;BMP_temperature;BMP_pressure;BME280_temperature;BME280_humidity;BME280_pressure;Samples;Min_cycle;Max_cycle;Signal;HPM_P1;HPM_P2
2021/12/25 00:01:07;;;;;;;3.22;1.42;;;-8.30;99.90;;;-10.61;93.93;99907.69;6228461;22;20448;-73
2021/12/25 00:03:35;;;;;;;1.92;0.77;;;-8.40;99.90;;;-10.65;95.21;99918.63;6247531;22;20010;-73
2021/12/25 00:06:03;;;;;;;2.90;0.90;;;-8.40;99.90;;;-10.70;95.21;99910.00;6256212;22;20459;-73
2021/12/25 00:08:31;;;;;;;1.45;0.65;;;-8.40;99.90;;;-10.72;94.30;99915.06;6254452;22;20011;-73
2021/12/25 00:10:59;;;;;;;6.53;0.90;;;-8.50;99.90;;;-10.75;94.69;99930.25;6231497;22;20007;-73
2021/12/25 00:13:26;;;;;;;1.15;0.65;;;-8.50;99.90;;;-10.79;95.07;99923.34;6257702;22;20014;-74
2021/12/25 00:15:53;;;;;;;0.85;0.50;;;-8.50;99.90;;;-10.82;94.92;99925.81;6273061;22;20009;-74
2021/12/25 00:18:21;;;;;;;8.65;0.70;;;-8.60;99.90;;;-10.83;94.64;99939.34;6176717;22;20421;-73
2021/12/25 00:20:47;;;;;;;4.95;1.20;;;-8.60;99.90;;;-10.86;95.29;99931.63;6227528;22;20006;-72
2021/12/25 00:23:14;;;;;;;4.35;0.80;;;-8.60;99.90;;;-10.84;95.11;99947.78;6310005;22;20018;-72
2021/12/25 00:25:49;;;;;;;3.75;0.70;;;-8.60;99.90;;;-10.78;95.80;99958.13;6295637;22;20015;-73
2021/12/25 00:28:22;;;;;;;2.50;0.75;;;-8.60;99.90;;;-10.74;95.98;99949.75;6287611;22;20013;-73
2021/12/25 00:31:25;;;;;;;4.65;0.80;;;-8.50;99.90;;;-10.73;96.05;99954.03;6286008;22;20010;-72
2021/12/25 00:34:00;;;;;;;1.83;0.57;;;-8.50;99.90;;;-10.71;96.30;99962.59;6291812;22;20310;-74
2021/12/25 00:36:26;;;;;;;3.65;0.80;;;-8.50;99.90;;;-10.71;95.71;99951.53;6286105;22;20048;-73
2021/12/25 00:38:54;;;;;;;4.40;1.20;;;-8.50;99.90;;;-10.70;96.61;99960.91;6225291;22;20006;-73
2021/12/25 00:41:23;;;;;;;3.78;0.90;;;-8.50;99.90;;;-10.74;95.82;99965.03;6294566;22;20010;-72
2021/12/25 00:43:50;;;;;;;3.05;1.10;;;-8.60;99.90;;;-10.81;96.77;99956.38;6283120;22;20066;-72
2021/12/25 00:46:16;;;;;;;6.18;1.25;;;-8.60;99.90;;;-10.83;96.36;99959.69;6272846;22;20023;-72
2021/12/25 00:48:43;;;;;;;7.53;1.35;;;-8.60;99.90;;;-10.83;96.79;99952.06;6256933;22;20344;-72
2021/12/25 00:51:09;;;;;;;6.43;1.25;;;-8.60;99.90;;;-10.86;96.61;99962.13;6257857;22;19999;-72
2021/12/25 00:53:35;;;;;;;5.80;1.60;;;-8.60;99.90;;;-10.88;95.73;99958.69;6286079;22;20007;-71
2021/12/25 00:56:00;;;;;;;8.20;1.17;;;-8.70;99.90;;;-10.90;96.51;99968.00;6272893;22;20361;-71
2021/12/25 00:58:27;;;;;;;5.40;1.15;;;-8.70;99.90;;;-10.94;96.78;99964.50;6247988;22;20460;-72
2021/12/25 01:00:53;;;;;;;4.68;1.77;;;-8.70;99.90;;;-10.98;95.50;99962.69;6285351;22;20041;-71
2021/12/25 01:03:19;;;;;;;5.13;1.52;;;-8.70;99.90;;;-11.00;96.75;99966.84;6297907;22;20010;-72
2021/12/25 01:05:45;;;;;;;3.40;1.27;;;-8.80;99.90;;;-11.02;96.33;99969.34;6299545;22;20014;-71
2021/12/25 01:08:11;;;;;;;4.25;1.55;;;-8.80;99.90;;;-11.04;95.97;99965.91;6247426;22;20053;-71
2021/12/25 01:10:37;;;;;;;3.75;1.30;;;-8.80;99.90;;;-11.06;96.59;99974.31;6269650;22;19999;-71
2021/12/25 01:13:10;;;;;;;3.97;1.40;;;-8.80;99.90;;;-11.08;95.94;99976.81;6297874;22;20387;-73
2021/12/25 01:36:55;;;;;;;4.45;0.95;;;-8.70;99.90;;;-10.82;98.46;100030.06;6269468;22;20030;-72
2021/12/25 01:39:46;;;;;;;5.63;1.40;;;-8.60;99.90;;;-10.76;98.92;100037.88;6259801;22;20007;-72
2021/12/25 01:47:52;;;;;;;4.28;1.13;;;-8.50;99.90;;;-10.66;99.51;100051.75;6289097;22;20029;-72
2021/12/25 01:50:23;;;;;;;3.35;1.13;;;-8.50;99.90;;;-10.65;99.43;100050.91;6286789;22;20007;-72
2021/12/25 01:52:49;;;;;;;6.55;1.63;;;-8.40;99.90;;;-10.66;99.96;100050.06;6310040;22;20022;-72
2021/12/25 01:55:27;;;;;;;7.57;1.52;;;-8.50;99.90;;;-10.67;100.00;100055.94;6313384;22;20007;-71
2021/12/25 01:57:56;;;;;;;5.57;1.30;;;-8.50;99.90;;;-10.69;100.00;100049.09;6254909;22;20102;-72
2021/12/25 02:00:34;;;;;;;5.70;1.75;;;-8.50;99.90;;;-10.71;100.00;100044.00;6257689;22;20449;-72
2021/12/25 02:03:02;;;;;;;9.13;1.23;;;-8.50;99.90;;;-10.74;100.00;100047.28;6297363;22;20019;-72
2021/12/25 02:05:28;;;;;;;3.03;1.20;;;-8.50;99.90;;;-10.74;99.85;100054.06;6297870;22;20015;-72
2021/12/25 02:07:54;;;;;;;4.32;1.05;;;-8.50;99.90;;;-10.75;99.72;100057.44;6277221;22;20034;-73
2021/12/25 02:10:20;;;;;;;2.53;1.08;;;-8.60;99.90;;;-10.75;99.67;100062.53;6313927;22;19998;-72
2021/12/25 02:12:49;;;;;;;5.53;0.90;;;-8.60;99.90;;;-10.76;100.00;100058.25;6282793;22;20072;-72
2021/12/25 02:15:20;;;;;;;3.60;0.95;;;-8.50;99.90;;;-10.76;100.00;100055.69;6271143;22;20344;-72
2021/12/25 02:20:41;;;;;;;6.75;1.13;;;-8.60;99.90;;;-10.82;99.99;100061.50;6287658;22;20014;-72
2021/12/25 02:23:21;;;;;;;3.53;0.80;;;-8.60;99.90;;;-10.86;99.89;100067.31;6296549;22;20502;-72
2021/12/25 02:25:52;;;;;;;3.17;1.17;;;-8.60;99.90;;;-10.88;100.00;100071.47;6309404;22;20082;-72
2021/12/25 02:28:19;;;;;;;2.08;0.88;;;-8.60;99.90;;;-10.88;100.00;100068.03;6271083;22;20002;-72
2021/12/25 02:30:48;;;;;;;5.18;1.10;;;-8.70;99.90;;;-10.88;100.00;100079.09;6270752;22;20014;-72
2021/12/25 02:33:16;;;;;;;13.57;1.17;;;-8.70;99.90;;;-10.88;100.00;100075.69;6270746;22;19999;-72
2021/12/25 02:35:44;;;;;;;3.70;1.20;;;-8.50;99.90;;;-10.87;100.00;100074.88;6258887;22;19995;-72
2021/12/25 02:38:12;;;;;;;1.42;0.77;;;-8.70;99.90;;;-10.90;99.76;100068.03;6293987;22;19999;-73
2021/12/25 02:40:38;;;;;;;3.75;1.35;;;-8.70;99.90;;;-10.92;99.48;100067.13;6273396;22;20149;-72
2021/12/25 02:43:05;;;;;;;3.33;0.90;;;-8.70;99.90;;;-10.95;100.00;100064.47;6310688;22;19999;-72
2021/12/25 02:45:30;;;;;;;2.20;0.90;;;-8.70;99.90;;;-10.97;99.93;100066.09;6283282;22;19999;-72
2021/12/25 02:47:57;;;;;;;7.18;1.10;;;-8.70;99.90;;;-11.00;99.63;100060.94;6282632;22;19999;-72
2021/12/25 02:50:27;;;;;;;3.13;0.85;;;-8.80;99.90;;;-11.02;99.65;100071.06;6254844;22;20010;-71
2021/12/25 02:52:56;;;;;;;5.00;1.10;;;-8.80;99.90;;;-11.02;99.74;100075.28;6280898;22;20460;-72
2021/12/25 02:55:25;;;;;;;5.43;1.30;;;-8.80;99.90;;;-11.05;99.99;100070.97;6257380;22;20048;-72
2021/12/25 02:57:52;;;;;;;3.47;0.80;;;-8.80;99.90;;;-11.06;100.00;100078.56;6283496;22;20439;-71
2021/12/25 03:00:23;;;;;;;12.98;1.35;;;-8.80;99.90;;;-11.06;100.00;100071.78;6299468;22;20062;-72
2021/12/25 03:02:52;;;;;;;1.55;0.63;;;-8.80;99.90;;;-11.05;99.96;100078.59;6283432;22;20120;-72
2021/12/25 03:05:19;;;;;;;3.90;1.00;;;-8.80;99.90;;;-11.03;100.00;100069.34;6256678;22;20051;-72
2021/12/25 03:07:45;;;;;;;2.75;1.13;;;-8.80;99.90;;;-11.02;100.00;100081.22;6286182;22;20057;-72
2021/12/25 03:10:14;;;;;;;8.15;1.33;;;-8.80;99.90;;;-11.01;100.00;100085.50;6283474;22;20003;-72
2021/12/25 03:12:53;;;;;;;7.20;1.17;;;-8.80;99.90;;;-11.01;100.00;100090.59;6283501;22;20528;-72
2021/12/25 03:15:30;;;;;;;3.22;0.90;;;-8.80;99.90;;;-11.01;100.00;100085.50;6257158;22;20056;-72
2021/12/25 03:17:58;;;;;;;5.57;1.05;;;-8.80;99.90;;;-10.99;100.00;100088.06;6285653;22;20003;-72
2021/12/25 03:20:24;;;;;;;4.88;0.80;;;-8.80;99.90;;;-10.98;100.00;100094.91;6309404;22;20496;-72
2021/12/25 03:22:51;;;;;;;5.88;1.05;;;-8.80;99.90;;;-10.99;100.00;100088.06;6285858;22;20394;-73
2021/12/25 03:25:17;;;;;;;2.03;0.88;;;-8.80;99.90;;;-11.00;100.00;100089.75;6284053;22;20007;-71
2021/12/25 03:27:46;;;;;;;5.90;1.10;;;-8.80;99.90;;;-10.99;100.00;100101.69;6282563;22;20046;-72
2021/12/25 03:30:15;;;;;;;5.57;1.38;;;-8.80;99.90;;;-10.99;100.00;100096.59;6282539;22;20719;-72
2021/12/25 03:32:45;;;;;;;2.10;0.98;;;-8.80;99.90;;;-11.00;100.00;100094.84;6254253;22;20013;-72
2021/12/25 03:35:12;;;;;;;2.05;0.93;;;-8.80;99.90;;;-11.00;100.00;100099.94;6295546;22;20010;-72
2021/12/25 03:37:38;;;;;;;5.35;0.90;;;-8.80;99.90;;;-11.02;100.00;100106.66;6271962;22;20447;-72
2021/12/25 03:40:06;;;;;;;3.28;0.77;;;-8.80;99.90;;;-11.03;100.00;100106.63;6230533;22;20378;-72
2021/12/25 03:42:34;;;;;;;6.30;1.58;;;-8.80;99.90;;;-11.06;100.00;100098.88;6271658;22;20020;-72
2021/12/25 03:45:00;;;;;;;2.42;0.82;;;-8.80;99.90;;;-11.08;100.00;100097.97;6272485;22;20007;-72
2021/12/25 03:47:37;;;;;;;3.67;0.95;;;-8.90;99.90;;;-11.10;100.00;100090.28;6309753;22;20034;-72
2021/12/25 03:53:22;;;;;;;2.28;0.90;;;-8.80;99.90;;;-11.10;100.00;100085.22;6287486;22;20064;-72
2021/12/25 03:58:33;;;;;;;2.33;0.90;;;-8.90;99.90;;;-11.10;100.00;100100.47;6288168;22;20030;-72
2021/12/25 04:01:13;;;;;;;4.15;1.13;;;-8.90;99.90;;;-11.11;100.00;100093.66;6283118;22;20011;-72
2021/12/25 04:03:49;;;;;;;1.23;0.75;;;-8.90;99.90;;;-11.07;100.00;100104.81;6271587;22;20003;-72
2021/12/25 04:06:16;;;;;;;2.63;1.33;;;-8.80;99.90;;;-11.06;100.00;100109.91;6280787;22;20035;-72
2021/12/25 04:08:45;;;;;;;9.45;2.47;;;-8.80;99.90;;;-11.07;100.00;100105.66;6286049;22;20041;-72
2021/12/25 04:11:25;;;;;;;6.45;2.72;;;-8.80;99.90;;;-11.00;100.00;100107.56;6242569;22;20003;-72
2021/12/25 04:13:52;;;;;;;11.45;3.67;;;-8.70;99.90;;;-10.92;100.00;100120.53;6244601;22;20672;-72
2021/12/25 04:16:18;;;;;;;8.13;2.33;;;-8.70;99.90;;;-10.85;100.00;100124.97;6273701;22;20070;-73
2021/12/25 04:18:44;;;;;;;6.88;2.15;;;-8.60;99.90;;;-10.77;100.00;100135.38;6310383;22;20009;-72
2021/12/25 04:21:10;;;;;;;10.65;2.83;;;-8.60;99.90;;;-10.74;100.00;100140.53;6256840;22;20003;-72
2021/12/25 04:23:39;;;;;;;6.05;2.25;;;-8.50;99.90;;;-10.72;100.00;100144.00;6312145;22;20097;-72
2021/12/25 04:26:06;;;;;;;8.45;3.10;;;-8.50;99.90;;;-10.74;100.00;100138.84;6272062;22;20095;-72
2021/12/25 04:28:44;;;;;;;9.77;3.05;;;-8.60;99.90;;;-10.79;100.00;100137.88;6279804;22;20014;-72
2021/12/25 04:31:28;;;;;;;6.00;1.70;;;-8.60;99.90;;;-10.83;100.00;100136.06;6259735;22;20011;-72
2021/12/25 04:48:21;;;;;;;5.75;1.45;;;-8.60;99.90;;;-10.81;100.00;100126.78;6294001;22;20013;-72
2021/12/25 05:04:07;;;;;;;3.27;1.20;;;-8.50;99.90;;;-10.64;100.00;100162.06;6322315;22;20345;-72
2021/12/25 05:06:33;;;;;;;5.68;1.50;;;-8.50;99.90;;;-10.70;100.00;100162.72;6281327;22;20022;-72
2021/12/25 05:09:02;;;;;;;7.60;1.20;;;-8.50;99.90;;;-10.79;100.00;100159.91;6234839;22;20390;-72
2021/12/25 05:11:27;;;;;;;2.45;1.23;;;-8.60;99.90;;;-10.86;100.00;100150.34;6286119;22;19999;-72
2021/12/25 05:13:53;;;;;;;8.52;1.48;;;-8.60;99.90;;;-10.91;100.00;100150.22;6283074;22;20006;-71
2021/12/25 05:16:21;;;;;;;8.35;1.98;;;-8.70;99.90;;;-10.93;100.00;100149.28;6244352;22;20067;-72
2021/12/25 05:18:47;;;;;;;3.22;1.77;;;-8.70;99.90;;;-10.90;100.00;100146.00;6244185;22;20586;-72
2021/12/25 05:21:14;;;;;;;3.55;1.25;;;-8.60;99.90;;;-10.88;100.00;100152.88;6284758;22;20077;-72
2021/12/25 05:23:40;;;;;;;5.18;1.48;;;-8.60;99.90;;;-10.85;100.00;100150.41;6284654;22;20041;-73
2021/12/25 05:26:06;;;;;;;4.15;1.38;;;-8.60;99.90;;;-10.83;100.00;100153.00;6297933;22;20030;-72
2021/12/25 05:28:45;;;;;;;4.75;1.40;;;-8.60;99.90;;;-10.81;100.00;100151.38;6285700;22;20013;-72
2021/12/25 05:31:14;;;;;;;2.63;1.60;;;-8.60;99.90;;;-10.81;100.00;100164.09;6273177;22;20003;-72
2021/12/25 05:33:42;;;;;;;1.65;0.90;;;-8.60;99.90;;;-10.81;100.00;100169.16;6260000;22;20015;-73
2021/12/25 05:36:08;;;;;;;16.02;1.45;;;-8.60;99.90;;;-10.82;100.00;100167.44;6299793;22;20014;-72
2021/12/25 05:38:35;;;;;;;6.43;2.13;;;;;;;-10.83;100.00;100161.50;6246687;22;20399;-72
2021/12/25 05:41:03;;;;;;;4.55;1.60;;;-8.60;99.90;;;-10.82;100.00;100162.34;6298303;22;20003;-72
2021/12/25 05:43:29;;;;;;;6.95;2.25;;;-8.60;99.90;;;-10.81;100.00;100159.84;6281982;22;19998;-72
2021/12/25 05:45:55;;;;;;;4.95;1.50;;;-8.60;99.90;;;-10.78;100.00;100165.03;6300278;22;20077;-72
2021/12/25 05:48:21;;;;;;;10.27;2.17;;;-8.50;99.90;;;-10.75;100.00;100159.19;6284237;22;19999;-72
2021/12/25 05:50:48;;;;;;;10.20;1.52;;;-8.50;99.90;;;-10.72;100.00;100161.81;6244822;22;20412;-72
2021/12/25 05:53:15;;;;;;;6.40;1.63;;;-8.50;99.90;;;-10.71;100.00;100165.22;6298460;22;19999;-72
2021/12/25 05:55:41;;;;;;;4.63;1.92;;;-8.60;99.90;;;-10.74;100.00;100163.44;6284052;22;20003;-72
2021/12/25 05:58:09;;;;;;;6.63;1.65;;;-8.50;99.90;;;-10.77;100.00;100164.22;6269186;22;20091;-72
2021/12/25 06:00:38;;;;;;;7.00;1.40;;;-8.60;99.90;;;-10.80;100.00;100156.47;6271754;22;20014;-71
2021/12/25 06:03:05;;;;;;;6.95;1.40;;;-8.60;99.90;;;-10.81;100.00;100156.47;6270828;22;20003;-71
2021/12/25 06:05:30;;;;;;;4.35;1.80;;;-8.60;99.90;;;-10.82;100.00;100150.50;6250938;22;20007;-71
2021/12/25 06:07:57;;;;;;;10.65;1.40;;;-8.60;99.90;;;-10.84;100.00;100149.59;6279478;22;20038;-71
2021/12/25 06:10:23;;;;;;;7.30;1.85;;;-8.60;99.90;;;-10.84;100.00;100146.16;6252285;22;20846;-72
2021/12/25 06:12:53;;;;;;;9.45;1.33;;;-8.60;99.90;;;-10.84;100.00;100152.16;6260192;22;20019;-72
2021/12/25 06:15:20;;;;;;;5.35;1.25;;;-8.60;99.90;;;-10.82;100.00;100152.16;6246632;22;20516;-71
2021/12/25 06:17:47;;;;;;;8.00;1.23;;;-8.60;99.90;;;-10.82;100.00;100159.78;6283768;22;20432;-71
2021/12/25 06:20:14;;;;;;;7.95;1.10;;;-8.60;99.90;;;-10.81;100.00;100161.53;6292079;22;20014;-72
2021/12/25 06:22:40;;;;;;;2.45;0.90;;;-8.60;99.90;;;-10.77;100.00;100165.91;6269528;22;20492;-71
2021/12/25 06:25:08;;;;;;;11.57;0.98;;;-8.50;99.90;;;-10.70;100.00;100166.94;6283295;22;20017;-71
2021/12/25 06:27:34;;;;;;;5.75;1.30;;;-8.50;99.90;;;-10.64;100.00;100173.09;6310384;22;20014;-71
2021/12/25 06:30:03;;;;;;;2.40;1.00;;;-7.20;99.90;;;-10.60;100.00;100174.06;6271171;22;20018;-72
2021/12/25 06:32:29;;;;;;;10.85;1.48;;;-8.40;99.90;;;-10.61;100.00;100178.25;6282630;22;19998;-72
2021/12/25 06:34:55;;;;;;;9.18;1.20;;;-8.40;99.90;;;-10.63;100.00;100167.16;6310672;22;20010;-71
2021/12/25 06:37:21;;;;;;;4.43;1.30;;;-8.40;99.90;;;-10.64;100.00;100170.53;6269103;22;20036;-72
2021/12/25 06:39:48;;;;;;;3.33;1.20;;;-8.50;99.90;;;-10.65;100.00;100173.03;6269816;22;20021;-71
2021/12/25 06:42:15;;;;;;;7.10;1.40;;;-8.40;99.90;;;-10.65;100.00;100175.56;6284948;22;20099;-72
2021/12/25 06:44:42;;;;;;;3.03;1.33;;;-8.40;99.90;;;-10.65;100.00;100178.97;6261176;22;20010;-72
2021/12/25 06:47:08;;;;;;;8.82;1.55;;;-8.50;99.90;;;-10.65;100.00;100183.22;6243647;22;20015;-71
2021/12/25 06:49:34;;;;;;;3.97;1.45;;;-8.40;99.90;;;-10.67;100.00;100179.75;6283807;22;20344;-71
2021/12/25 06:52:00;;;;;;;3.75;1.23;;;-8.50;99.90;;;-10.68;100.00;100181.44;6270023;22;20006;-71
2021/12/25 06:54:26;;;;;;;2.40;1.10;;;-8.50;99.90;;;-10.71;100.00;100183.91;6296435;22;19999;-71
2021/12/25 06:56:53;;;;;;;5.95;1.00;;;-8.50;99.90;;;-10.70;100.00;100184.75;6284697;22;20054;-72
2021/12/25 06:59:21;;;;;;;5.53;1.15;;;-8.50;99.90;;;-10.71;100.00;100188.09;6258017;22;20014;-71
2021/12/25 07:01:48;;;;;;;2.25;1.02;;;-8.50;99.90;;;-10.70;100.00;100182.22;6283403;22;20102;-71
2021/12/25 07:04:14;;;;;;;4.38;1.00;;;-8.50;99.90;;;-10.67;100.00;100183.16;6269588;22;20011;-72
2021/12/25 07:06:40;;;;;;;4.90;1.20;;;-8.40;99.90;;;-10.63;100.00;100190.06;6284617;22;20099;-72
2021/12/25 07:09:09;;;;;;;3.83;0.95;;;-8.40;99.90;;;-10.62;100.00;100199.44;6270697;22;20007;-71
2021/12/25 07:11:44;;;;;;;3.10;1.30;;;-8.40;99.90;;;-10.60;100.00;100199.50;6282963;22;20407;-71
2021/12/25 07:14:11;;;;;;;;;;;-8.40;99.90;;;-10.61;100.00;100187.56;6271568;22;20022;-72
2021/12/25 07:16:39;;;;;;;6.75;1.23;;;-8.40;99.90;;;-10.60;100.00;100190.19;6310516;22;19985;-72
2021/12/25 07:19:09;;;;;;;6.05;1.13;;;-8.40;99.90;;;-10.56;100.00;100189.44;6284911;22;20006;-72
2021/12/25 07:21:36;;;;;;;3.75;0.90;;;-8.30;99.90;;;-10.48;100.00;100201.53;6284567;22;20015;-72
2021/12/25 07:24:03;;;;;;;6.47;0.95;;;-8.30;99.90;;;-10.41;100.00;100205.97;6266971;22;20003;-72
2021/12/25 07:26:29;;;;;;;10.93;1.00;;;-8.30;99.90;;;-10.39;100.00;100209.44;6299042;22;20011;-72
2021/12/25 07:28:55;;;;;;;7.53;1.23;;;-8.30;99.90;;;-10.39;100.00;100207.75;6290532;22;20061;-72
2021/12/25 07:31:22;;;;;;;2.47;0.63;;;-8.30;99.90;;;-10.40;100.00;100203.47;6282587;22;20341;-71
2021/12/25 07:33:48;;;;;;;2.88;0.88;;;-8.20;99.90;;;-10.40;100.00;100206.03;6270641;22;20005;-72
2021/12/25 07:36:15;;;;;;;3.22;0.90;;;-8.20;99.90;;;-10.38;100.00;100203.53;6270530;22;20341;-71
2021/12/25 07:38:41;;;;;;;3.63;1.02;;;-8.20;99.90;;;-10.36;100.00;100202.75;6282112;22;20862;-72
2021/12/25 07:41:07;;;;;;;4.05;0.85;;;-8.20;99.90;;;-10.34;100.00;100207.91;6284313;22;20908;-72
2021/12/25 07:43:33;;;;;;;1.25;0.60;;;-8.20;99.90;;;-10.28;100.00;100210.56;6252089;22;19999;-72
2021/12/25 07:45:59;;;;;;;1.17;0.70;;;-8.20;99.90;;;-10.24;100.00;100209.84;6233958;22;20007;-72
2021/12/25 07:48:27;;;;;;;2.58;0.80;;;-8.10;99.90;;;-10.21;100.00;100212.50;6295328;22;20010;-71
2021/12/25 07:50:55;;;;;;;7.25;1.23;;;-8.10;99.90;;;-10.14;100.00;100216.06;6297165;22;20002;-72
2021/12/25 07:53:20;;;;;;;1.85;0.68;;;-8.00;99.90;;;-10.10;100.00;100223.00;6310229;22;20146;-72
2021/12/25 07:55:47;;;;;;;5.07;1.02;;;-8.00;99.90;;;-10.04;100.00;100217.19;6257842;22;20007;-72
2021/12/25 07:58:18;;;;;;;3.53;0.93;;;-7.90;99.90;;;-9.96;100.00;100225.91;6284539;22;20906;-72
2021/12/25 08:00:45;;;;;;;2.05;0.80;;;-7.90;99.90;;;-9.88;100.00;100232.09;6282126;22;19995;-71
2021/12/25 08:03:13;;;;;;;4.75;1.00;;;-7.80;99.90;;;-9.83;100.00;100227.97;6277518;22;20640;-72
2021/12/25 08:05:39;;;;;;;3.83;0.80;;;-7.80;99.90;;;-9.75;100.00;100234.16;6283426;22;20007;-73
2021/12/25 08:08:07;;;;;;;6.03;1.38;;;-7.70;99.90;;;-9.70;100.00;100235.16;6295051;22;20026;-71
2021/12/25 08:10:33;;;;;;;2.78;0.93;;;-7.60;99.90;;;-9.63;100.00;100237.84;6244165;22;20003;-72
2021/12/25 08:12:59;;;;;;;4.30;1.08;;;-7.60;99.90;;;-9.59;100.00;100244.75;6270338;22;20055;-71
2021/12/25 08:15:29;;;;;;;4.07;0.70;;;-7.50;99.90;;;-9.56;100.00;100232.97;6284003;22;20003;-72
2021/12/25 08:17:57;;;;;;;3.67;1.08;;;-7.50;99.90;;;-9.53;100.00;100242.38;6258835;22;19999;-72
2021/12/25 08:20:25;;;;;;;6.45;1.35;;;-7.50;99.90;;;-9.49;100.00;100245.03;6282210;22;20003;-72
2021/12/25 08:22:55;;;;;;;3.50;1.08;;;-7.40;99.90;;;-9.44;100.00;100250.25;6269532;22;20006;-71
2021/12/25 08:25:23;;;;;;;4.75;1.20;;;-7.40;99.90;;;-9.40;100.00;100258.84;6272420;22;20042;-72
2021/12/25 08:27:50;;;;;;;3.00;0.98;;;-7.40;99.90;;;-9.36;100.00;100265.78;6281169;22;20102;-72
2021/12/25 08:30:20;;;;;;;3.85;1.10;;;-7.30;99.90;;;-9.34;100.00;100270.09;6297863;22;20069;-72
2021/12/25 08:32:46;;;;;;;2.42;0.95;;;-7.30;99.90;;;-9.29;100.00;100276.19;6311462;22;20452;-72
2021/12/25 08:35:15;;;;;;;7.28;1.20;;;-7.30;99.90;;;-9.25;100.00;100278.81;6271527;22;20002;-72
2021/12/25 08:37:44;;;;;;;4.03;1.00;;;-7.20;99.90;;;-9.21;100.00;100285.72;6312533;22;20029;-71
2021/12/25 08:40:12;;;;;;;5.65;1.38;;;-7.20;99.90;;;-9.18;100.00;100283.22;6251618;22;20011;-72
2021/12/25 08:42:45;;;;;;;8.13;1.25;;;-7.20;99.90;;;-9.13;100.00;100274.03;6281371;22;20034;-71
2021/12/25 08:47:59;;;;;;;3.53;1.67;;;-7.00;99.90;;;-8.96;100.00;100276.97;6261204;22;20045;-73
2021/12/25 08:50:25;;;;;;;6.80;1.63;;;-7.00;99.90;;;-8.88;100.00;100273.78;6283926;22;20097;-72
2021/12/25 08:52:51;;;;;;;5.38;1.38;;;-6.90;99.90;;;-8.78;100.00;100281.69;6286260;22;20091;-72
2021/12/25 08:55:19;;;;;;;10.27;1.90;;;-6.80;99.90;;;-8.65;100.00;100295.63;6285252;22;20014;-71
2021/12/25 08:57:45;;;;;;;5.53;2.05;;;-6.70;99.90;;;-8.60;100.00;100289.78;6272975;22;20075;-72
2021/12/25 09:00:12;;;;;;;5.32;1.92;;;-6.70;99.90;;;-8.50;100.00;100299.41;6260105;22;20011;-72
2021/12/25 09:02:41;;;;;;;5.72;1.70;;;-6.60;99.90;;;-8.40;100.00;100304.72;6268524;22;20095;-71
2021/12/25 09:05:10;;;;;;;8.50;2.00;;;-6.50;99.90;;;-8.35;100.00;100306.53;6293867;22;20006;-72
2021/12/25 09:07:36;;;;;;;5.15;2.00;;;-6.40;99.90;;;-8.28;100.00;100310.94;6282932;22;20359;-71
2021/12/25 09:10:02;;;;;;;4.15;1.70;;;-6.40;99.90;;;-8.21;100.00;100319.59;6257624;22;20011;-71
2021/12/25 09:12:29;;;;;;;4.78;1.80;;;-6.30;99.90;;;-8.15;100.00;100327.41;6203084;22;20049;-71
2021/12/25 09:14:55;;;;;;;7.68;2.05;;;-6.20;99.90;;;-8.07;100.00;100330.16;6275521;22;20057;-72
2021/12/25 09:17:21;;;;;;;8.45;1.48;;;-6.20;99.90;;;-8.00;100.00;100331.13;6273453;22;20486;-71
2021/12/25 09:19:50;;;;;;;7.60;1.88;;;-6.10;99.90;;;-7.95;100.00;100330.41;6257575;22;20034;-71
2021/12/25 09:22:18;;;;;;;7.97;1.63;;;-6.10;99.90;;;-7.92;100.00;100324.50;6282603;22;20018;-73
2021/12/25 09:24:47;;;;;;;3.78;1.60;;;-6.00;99.90;;;-7.85;100.00;100336.59;6230693;22;20023;-72
2021/12/25 09:27:13;;;;;;;5.45;1.70;;;-6.00;99.90;;;-7.83;100.00;100334.94;6309149;22;20112;-71
2021/12/25 09:29:39;;;;;;;5.30;1.30;;;-5.90;99.90;;;-7.79;100.00;100339.28;6310274;22;20018;-72
2021/12/25 09:32:05;;;;;;;5.38;1.48;;;-5.90;99.90;;;-7.72;100.00;100348.78;6295793;22;20090;-71
2021/12/25 09:34:35;;;;;;;4.45;1.63;;;-5.80;99.90;;;-7.67;100.00;100349.75;6271861;22;20516;-72
2021/12/25 09:37:04;;;;;;;5.45;1.70;;;-5.80;99.90;;;-7.61;100.00;100350.72;6242509;22;20007;-72
2021/12/25 09:39:34;;;;;;;7.50;1.70;;;-5.70;99.90;;;-7.59;100.00;100355.03;6267929;22;20014;-73
2021/12/25 09:42:00;;;;;;;11.70;1.90;;;-5.70;99.90;;;-7.52;100.00;100361.13;6311319;22;19999;-72
2021/12/25 09:44:26;;;;;;;7.97;2.60;;;-5.60;99.90;;;-7.52;100.00;100346.66;6282388;22;20276;-72
2021/12/25 09:46:55;;;;;;;8.10;2.55;;;-5.60;99.90;;;-7.47;100.00;100351.88;6243040;22;20453;-72
2021/12/25 09:49:26;;;;;;;9.50;2.30;;;-5.60;99.90;;;-7.42;100.00;100357.94;6293627;22;20056;-71
2021/12/25 09:51:55;;;;;;;7.25;1.90;;;-5.50;99.90;;;-7.37;100.00;100358.03;6283892;22;20078;-72
2021/12/25 09:54:22;;;;;;;11.32;2.20;;;-5.50;99.90;;;-7.29;100.00;100353.94;6254093;22;20010;-72
2021/12/25 09:56:51;;;;;;;7.80;1.90;;;-5.40;99.90;;;-7.20;100.00;100350.69;6282476;22;20067;-72
2021/12/25 09:59:20;;;;;;;12.70;1.70;;;-5.30;99.90;;;-7.13;100.00;100361.06;6282103;22;20011;-72
2021/12/25 10:01:56;;;;;;;10.27;1.85;;;-5.20;99.90;;;-6.96;100.00;100369.06;6272064;22;20564;-71
2021/12/25 10:04:48;;;;;;;4.93;1.85;;;-5.00;99.90;;;-6.63;100.00;100385.88;6281923;22;20651;-72
2021/12/25 10:07:32;;;;;;;6.55;1.45;;;-4.60;99.90;;;-6.29;100.00;100396.69;6258216;22;20018;-72
2021/12/25 10:10:16;;;;;;;4.80;1.73;;;-4.00;99.90;;;-5.95;100.00;100410.91;6282658;22;20407;-72
2021/12/25 10:12:51;;;;;;;8.05;2.05;;;-3.50;99.90;;;-5.63;99.88;100418.19;6233681;22;20716;-72
2021/12/25 10:15:25;;;;;;;7.57;2.00;;;-3.30;99.90;;;-5.36;98.93;100417.69;6245225;22;20010;-72
2021/12/25 10:17:59;;;;;;;5.13;1.85;;;-3.20;99.90;;;-5.21;98.57;100417.03;6284301;22;20007;-72
2021/12/25 10:20:33;;;;;;;6.72;1.42;;;-3.20;99.90;;;-5.06;97.34;100419.78;6254205;22;20030;-72
2021/12/25 10:23:13;;;;;;;7.30;2.17;;;-3.20;99.90;;;-5.02;96.69;100413.00;6274138;22;20011;-73
2021/12/25 10:25:59;;;;;;;7.13;1.90;;;-3.20;99.90;;;-4.98;96.01;100415.63;6294786;22;20013;-72
2021/12/25 10:28:38;;;;;;;;;;;-3.20;99.90;;;-5.01;95.19;100413.03;6233908;22;20010;-72
2021/12/25 10:31:16;;;;;;;7.25;2.00;;;-3.20;99.90;;;-4.98;95.09;100401.91;6283060;22;19911;-73
2021/12/25 10:33:53;;;;;;;8.38;1.73;;;-3.20;99.90;;;-4.98;94.65;100399.34;6253868;22;20436;-74
2021/12/25 10:36:29;;;;;;;11.98;1.35;;;-3.20;99.90;;;-4.95;94.37;100395.13;6285916;22;20053;-75
2021/12/25 10:39:12;;;;;;;7.97;1.60;;;-3.20;99.90;;;-4.88;93.62;100403.75;6257007;22;20459;-73
2021/12/25 10:42:06;;;;;;;5.05;1.27;;;-3.10;99.90;;;-4.80;93.89;100399.53;6310647;22;20011;-73
2021/12/25 10:44:36;;;;;;;6.13;1.75;;;-3.10;99.90;;;-4.74;94.18;100407.31;6272267;22;19999;-73
2021/12/25 10:47:20;;;;;;;10.23;1.83;;;-3.00;99.90;;;-4.65;93.99;100410.81;6295667;22;20015;-74
2021/12/25 10:49:50;;;;;;;9.10;1.60;;;-2.90;99.90;;;-4.59;94.15;100405.75;6270945;22;20030;-73
2021/12/25 10:52:28;;;;;;;5.20;1.38;;;-2.90;99.90;;;-4.51;93.24;100398.09;6254297;22;20065;-73
2021/12/25 10:54:58;;;;;;;8.77;1.70;;;-2.80;99.90;;;-4.47;93.12;100398.16;6271800;22;20060;-74
2021/12/25 10:57:42;;;;;;;9.50;1.60;;;-2.80;99.90;;;-4.42;93.00;100393.06;6310845;22;20014;-73
2021/12/25 11:00:15;;;;;;;4.82;1.60;;;-2.70;99.90;;;-4.39;93.40;100391.38;6295287;22;20441;-74
2021/12/25 11:02:49;;;;;;;5.35;1.42;;;-2.60;99.90;;;-4.33;93.37;100394.00;6308860;22;20002;-74
2021/12/25 11:05:30;;;;;;;7.07;1.50;;;-2.60;99.90;;;-4.26;93.49;100401.75;6250704;22;20149;-74
2021/12/25 11:08:20;;;;;;;2.78;1.27;;;-2.50;99.90;;;-4.20;93.09;100401.81;6255898;22;20025;-73
2021/12/25 11:10:54;;;;;;;6.32;1.42;;;-2.50;99.90;;;-4.16;92.27;100399.28;6244308;22;20021;-73
2021/12/25 11:13:20;;;;;;;11.05;1.63;;;-2.40;99.90;;;-4.10;92.53;100406.19;6313523;22;20060;-74
2021/12/25 11:15:48;;;;;;;9.35;2.00;;;-2.40;99.90;;;-4.06;91.96;100401.91;6302416;22;20018;-73
2021/12/25 11:18:15;;;;;;;7.32;1.85;;;-2.30;99.90;;;-4.03;91.89;100400.25;6245558;22;20025;-73
2021/12/25 11:20:43;;;;;;;6.20;1.90;;;-2.30;99.90;;;-4.01;91.53;100393.41;6271897;22;20088;-73